sensor_id;sensor_type;location;lat;lon;timestamp;pressure;altitude;pressure_sealevel;temperature;humidity
64192;BME280;50497;50.720;-2.084;2023-05-23T00:02:14;103813.69;;;12.78;100.00
64192;BME280;50497;50.720;-2.084;2023-05-23T00:04:39;103847.75;;;12.74;100.00
64192;BME280;50497;50.720;-2.084;2023-05-23T00:07:05;103828.97;;;12.66;100.00
64192;BME280;50497;50.720;-2.084;2023-05-23T00:09:30;103812.97;;;12.54;100.00
64192;BME280;50497;50.720;-2.084;2023-05-23T00:11:56;103831.69;;;12.62;100.00
64192;BME280;50497;50.720;-2.084;2023-05-23T00:14:21;103835.31;;;12.61;100.00
64192;BME280;50497;50.720;-2.084;2023-05-23T00:16:47;103830.81;;;12.60;100.00
64192;BME280;50497;50.720;-2.084;2023-05-23T00:19:14;103821.03;;;12.49;100.00
64192;BME280;50497;50.720;-2.084;2023-05-23T00:21:41;103841.66;;;12.44;100.00
64192;BME280;50497;50.720;-2.084;2023-05-23T00:24:08;103892.69;;;12.43;100.00
64192;BME280;50497;50.720;-2.084;2023-05-23T00:26:35;103925.81;;;12.40;100.00
64192;BME280;50497;50.720;-2.084;2023-05-23T00:29:00;103936.59;;;12.32;100.00
64192;BME280;50497;50.720;-2.084;2023-05-23T00:31:26;103955.38;;;12.34;100.00
64192;BME280;50497;50.720;-2.084;2023-05-23T00:33:51;103931.25;;;12.28;100.00
64192;BME280;50497;50.720;-2.084;2023-05-23T00:36:17;103921.41;;;12.24;100.00
64192;BME280;50497;50.720;-2.084;2023-05-23T00:38:42;103908.91;;;12.19;100.00
64192;BME280;50497;50.720;-2.084;2023-05-23T00:41:10;103895.53;;;12.09;100.00
64192;BME280;50497;50.720;-2.084;2023-05-23T00:43:36;103897.28;;;12.07;100.00
64192;BME280;50497;50.720;-2.084;2023-05-23T00:46:02;103886.59;;;12.00;100.00
64192;BME280;50497;50.720;-2.084;2023-05-23T00:48:27;103851.72;;;12.02;100.00
64192;BME280;50497;50.720;-2.084;2023-05-23T00:50:54;103825.78;;;11.93;100.00
64192;BME280;50497;50.720;-2.084;2023-05-23T00:53:20;103814.19;;;11.91;100.00
64192;BME280;50497;50.720;-2.084;2023-05-23T00:55:46;103805.22;;;11.83;100.00
64192;BME280;50497;50.720;-2.084;2023-05-23T00:58:12;103757.94;;;11.60;100.00
64192;BME280;50497;50.720;-2.084;2023-05-23T01:00:40;103769.53;;;11.64;100.00
64192;BME280;50497;50.720;-2.084;2023-05-23T01:03:05;103782.94;;;11.65;100.00
64192;BME280;50497;50.720;-2.084;2023-05-23T01:05:31;103786.53;;;11.55;100.00
64192;BME280;50497;50.720;-2.084;2023-05-23T01:07:56;103767.78;;;11.52;100.00
64192;BME280;50497;50.720;-2.084;2023-05-23T01:10:26;103687.38;;;11.48;100.00
64192;BME280;50497;50.720;-2.084;2023-05-23T01:15:58;103077.97;;;11.42;100.00
64192;BME280;50497;50.720;-2.084;2023-05-23T01:21:22;102271.25;;;11.41;100.00
64192;BME280;50497;50.720;-2.084;2023-05-23T01:24:08;102240.13;;;11.35;100.00
64192;BME280;50497;50.720;-2.084;2023-05-23T01:27:10;102239.44;;;11.27;100.00
64192;BME280;50497;50.720;-2.084;2023-05-23T01:29:45;102221.88;;;11.17;100.00
64192;BME280;50497;50.720;-2.084;2023-05-23T01:32:13;102322.97;;;11.08;100.00
64192;BME280;50497;50.720;-2.084;2023-05-23T01:34:40;102338.50;;;10.94;100.00
64192;BME280;50497;50.720;-2.084;2023-05-23T01:37:09;102294.03;;;10.87;100.00
64192;BME280;50497;50.720;-2.084;2023-05-23T01:39:35;102201.41;;;10.78;100.00
64192;BME280;50497;50.720;-2.084;2023-05-23T01:42:00;102153.19;;;10.80;100.00
64192;BME280;50497;50.720;-2.084;2023-05-23T01:44:27;102074.84;;;10.73;100.00
64192;BME280;50497;50.720;-2.084;2023-05-23T01:46:52;101946.34;;;10.73;100.00
64192;BME280;50497;50.720;-2.084;2023-05-23T01:49:18;101910.72;;;10.71;100.00
64192;BME280;50497;50.720;-2.084;2023-05-23T01:51:46;101896.53;;;10.67;100.00
64192;BME280;50497;50.720;-2.084;2023-05-23T01:54:13;101848.53;;;10.63;100.00
64192;BME280;50497;50.720;-2.084;2023-05-23T01:56:41;101797.03;;;10.54;100.00
64192;BME280;50497;50.720;-2.084;2023-05-23T01:59:07;101696.16;;;10.57;100.00
64192;BME280;50497;50.720;-2.084;2023-05-23T02:01:33;101681.25;;;10.49;100.00
64192;BME280;50497;50.720;-2.084;2023-05-23T02:03:59;101700.66;;;10.26;100.00
64192;BME280;50497;50.720;-2.084;2023-05-23T02:06:24;101723.19;;;10.17;100.00
64192;BME280;50497;50.720;-2.084;2023-05-23T02:08:50;101708.38;;;10.37;100.00
64192;BME280;50497;50.720;-2.084;2023-05-23T02:11:15;101700.34;;;10.37;100.00
64192;BME280;50497;50.720;-2.084;2023-05-23T02:13:40;101707.59;;;10.33;100.00
64192;BME280;50497;50.720;-2.084;2023-05-23T02:16:06;101708.44;;;10.34;100.00
64192;BME280;50497;50.720;-2.084;2023-05-23T02:18:32;101557.28;;;10.21;100.00
64192;BME280;50497;50.720;-2.084;2023-05-23T02:20:57;101508.03;;;10.28;100.00
64192;BME280;50497;50.720;-2.084;2023-05-23T02:23:23;101522.16;;;10.33;100.00
64192;BME280;50497;50.720;-2.084;2023-05-23T02:25:49;101555.22;;;10.29;100.00
64192;BME280;50497;50.720;-2.084;2023-05-23T02:28:14;101600.91;;;10.23;100.00
64192;BME280;50497;50.720;-2.084;2023-05-23T02:30:40;101664.34;;;10.17;100.00
64192;BME280;50497;50.720;-2.084;2023-05-23T02:33:06;101726.00;;;10.13;100.00
64192;BME280;50497;50.720;-2.084;2023-05-23T02:35:32;101750.34;;;10.04;100.00
64192;BME280;50497;50.720;-2.084;2023-05-23T02:37:58;101714.81;;;10.00;100.00
64192;BME280;50497;50.720;-2.084;2023-05-23T02:40:24;101670.22;;;10.01;100.00
64192;BME280;50497;50.720;-2.084;2023-05-23T02:42:49;101680.09;;;9.98;100.00
64192;BME280;50497;50.720;-2.084;2023-05-23T02:45:16;101662.09;;;9.74;100.00
64192;BME280;50497;50.720;-2.084;2023-05-23T02:47:42;101696.25;;;9.94;100.00
64192;BME280;50497;50.720;-2.084;2023-05-23T02:50:07;101694.47;;;9.94;100.00
64192;BME280;50497;50.720;-2.084;2023-05-23T02:52:33;101692.09;;;9.84;100.00
64192;BME280;50497;50.720;-2.084;2023-05-23T02:54:58;101714.56;;;9.78;100.00
64192;BME280;50497;50.720;-2.084;2023-05-23T02:57:24;101706.50;;;9.79;100.00
64192;BME280;50497;50.720;-2.084;2023-05-23T02:59:51;101645.06;;;9.78;100.00
64192;BME280;50497;50.720;-2.084;2023-05-23T03:02:16;101605.03;;;9.76;100.00
64192;BME280;50497;50.720;-2.084;2023-05-23T03:04:42;101626.63;;;9.69;100.00
64192;BME280;50497;50.720;-2.084;2023-05-23T03:07:07;101637.44;;;9.64;100.00
64192;BME280;50497;50.720;-2.084;2023-05-23T03:09:35;101619.09;;;9.52;100.00
64192;BME280;50497;50.720;-2.084;2023-05-23T03:12:00;101661.53;;;9.62;100.00
64192;BME280;50497;50.720;-2.084;2023-05-23T03:14:26;101634.41;;;9.47;100.00
64192;BME280;50497;50.720;-2.084;2023-05-23T03:16:51;101666.78;;;9.66;100.00
64192;BME280;50497;50.720;-2.084;2023-05-23T03:19:16;101600.31;;;9.55;100.00
64192;BME280;50497;50.720;-2.084;2023-05-23T03:21:42;101596.28;;;9.71;100.00
64192;BME280;50497;50.720;-2.084;2023-05-23T03:24:08;101547.09;;;9.77;100.00
64192;BME280;50497;50.720;-2.084;2023-05-23T03:26:33;101525.47;;;9.85;100.00
64192;BME280;50497;50.720;-2.084;2023-05-23T03:28:59;101529.88;;;9.86;100.00
64192;BME280;50497;50.720;-2.084;2023-05-23T03:31:24;101482.19;;;9.73;100.00
64192;BME280;50497;50.720;-2.084;2023-05-23T03:33:50;101548.59;;;10.14;100.00
64192;BME280;50497;50.720;-2.084;2023-05-23T03:36:16;101592.53;;;10.05;100.00
64192;BME280;50497;50.720;-2.084;2023-05-23T03:38:41;101565.75;;;9.78;100.00
64192;BME280;50497;50.720;-2.084;2023-05-23T03:41:06;101603.16;;;10.08;100.00
64192;BME280;50497;50.720;-2.084;2023-05-23T03:43:32;101624.75;;;10.01;100.00
64192;BME280;50497;50.720;-2.084;2023-05-23T03:45:57;101635.41;;;10.02;100.00
64192;BME280;50497;50.720;-2.084;2023-05-23T03:48:23;101651.41;;;10.04;100.00
64192;BME280;50497;50.720;-2.084;2023-05-23T03:50:48;101726.66;;;10.21;100.00
64192;BME280;50497;50.720;-2.084;2023-05-23T03:53:14;101731.50;;;10.08;100.00
64192;BME280;50497;50.720;-2.084;2023-05-23T03:55:39;101677.28;;;10.03;100.00
64192;BME280;50497;50.720;-2.084;2023-05-23T03:58:05;101620.50;;;9.95;100.00
64192;BME280;50497;50.720;-2.084;2023-05-23T04:00:30;101600.28;;;9.86;100.00
64192;BME280;50497;50.720;-2.084;2023-05-23T04:02:55;101591.81;;;10.00;100.00
64192;BME280;50497;50.720;-2.084;2023-05-23T04:05:21;101623.75;;;10.05;100.00
64192;BME280;50497;50.720;-2.084;2023-05-23T04:07:47;101680.66;;;10.10;100.00
64192;BME280;50497;50.720;-2.084;2023-05-23T04:10:12;101701.34;;;10.03;100.00
64192;BME280;50497;50.720;-2.084;2023-05-23T04:12:37;101736.03;;;10.06;100.00
64192;BME280;50497;50.720;-2.084;2023-05-23T04:15:06;101701.88;;;9.85;100.00
64192;BME280;50497;50.720;-2.084;2023-05-23T04:17:32;101740.25;;;10.13;100.00
64192;BME280;50497;50.720;-2.084;2023-05-23T04:19:58;101729.00;;;10.02;100.00
64192;BME280;50497;50.720;-2.084;2023-05-23T04:22:23;101700.69;;;9.95;100.00
64192;BME280;50497;50.720;-2.084;2023-05-23T04:24:49;101683.72;;;9.96;100.00
64192;BME280;50497;50.720;-2.084;2023-05-23T04:27:14;101683.19;;;9.85;100.00
64192;BME280;50497;50.720;-2.084;2023-05-23T04:29:40;101683.19;;;9.85;100.00
64192;BME280;50497;50.720;-2.084;2023-05-23T04:32:06;101672.66;;;9.78;100.00
64192;BME280;50497;50.720;-2.084;2023-05-23T04:34:32;101758.19;;;10.10;100.00
64192;BME280;50497;50.720;-2.084;2023-05-23T04:37:02;101752.56;;;9.88;100.00
64192;BME280;50497;50.720;-2.084;2023-05-23T04:39:28;101736.94;;;10.05;100.00
64192;BME280;50497;50.720;-2.084;2023-05-23T04:41:54;101747.59;;;10.07;100.00
64192;BME280;50497;50.720;-2.084;2023-05-23T04:44:21;101767.13;;;10.09;100.00
64192;BME280;50497;50.720;-2.084;2023-05-23T04:46:47;101811.63;;;10.11;100.00
64192;BME280;50497;50.720;-2.084;2023-05-23T04:49:14;101785.81;;;10.10;100.00
64192;BME280;50497;50.720;-2.084;2023-05-23T04:51:41;101758.06;;;10.14;100.00
64192;BME280;50497;50.720;-2.084;2023-05-23T04:54:06;101765.47;;;10.05;100.00
64192;BME280;50497;50.720;-2.084;2023-05-23T04:56:32;101775.03;;;10.13;100.00
64192;BME280;50497;50.720;-2.084;2023-05-23T04:58:57;101786.59;;;10.14;100.00
64192;BME280;50497;50.720;-2.084;2023-05-23T05:01:23;101803.06;;;9.98;100.00
64192;BME280;50497;50.720;-2.084;2023-05-23T05:03:49;101851.38;;;10.24;100.00
64192;BME280;50497;50.720;-2.084;2023-05-23T05:06:15;101852.22;;;10.26;100.00
64192;BME280;50497;50.720;-2.084;2023-05-23T05:08:41;101848.63;;;10.27;100.00
64192;BME280;50497;50.720;-2.084;2023-05-23T05:11:08;101846.75;;;10.30;100.00
64192;BME280;50497;50.720;-2.084;2023-05-23T05:13:33;101839.66;;;10.29;100.00
64192;BME280;50497;50.720;-2.084;2023-05-23T05:15:58;101871.59;;;10.35;100.00
64192;BME280;50497;50.720;-2.084;2023-05-23T05:18:25;101851.09;;;10.36;100.00
64192;BME280;50497;50.720;-2.084;2023-05-23T05:20:51;101835.72;;;10.43;100.00
64192;BME280;50497;50.720;-2.084;2023-05-23T05:23:16;101814.13;;;10.49;100.00
64192;BME280;50497;50.720;-2.084;2023-05-23T05:25:42;101849.84;;;10.48;100.00
64192;BME280;50497;50.720;-2.084;2023-05-23T05:28:08;101829.13;;;10.54;100.00
64192;BME280;50497;50.720;-2.084;2023-05-23T05:30:33;101837.03;;;10.59;100.00
64192;BME280;50497;50.720;-2.084;2023-05-23T05:33:03;101794.56;;;10.47;100.00
64192;BME280;50497;50.720;-2.084;2023-05-23T05:35:32;101817.88;;;10.73;100.00
64192;BME280;50497;50.720;-2.084;2023-05-23T05:37:59;101811.13;;;10.60;100.00
64192;BME280;50497;50.720;-2.084;2023-05-23T05:40:24;101817.88;;;10.73;100.00
64192;BME280;50497;50.720;-2.084;2023-05-23T05:42:50;101770.28;;;10.54;100.00
64192;BME280;50497;50.720;-2.084;2023-05-23T05:45:16;101779.19;;;10.83;100.00
64192;BME280;50497;50.720;-2.084;2023-05-23T05:47:42;101758.66;;;10.82;100.00
64192;BME280;50497;50.720;-2.084;2023-05-23T05:50:08;101753.94;;;10.90;100.00
64192;BME280;50497;50.720;-2.084;2023-05-23T05:52:35;101749.44;;;10.93;100.00
64192;BME280;50497;50.720;-2.084;2023-05-23T05:55:08;101713.75;;;10.92;100.00
64192;BME280;50497;50.720;-2.084;2023-05-23T05:57:36;101748.16;;;11.04;100.00
64192;BME280;50497;50.720;-2.084;2023-05-23T06:00:12;101756.81;;;11.13;100.00
64192;BME280;50497;50.720;-2.084;2023-05-23T06:02:43;101765.47;;;11.21;100.00
64192;BME280;50497;50.720;-2.084;2023-05-23T06:05:12;101754.47;;;11.28;100.00
64192;BME280;50497;50.720;-2.084;2023-05-23T06:07:38;101747.44;;;11.76;100.00
64192;BME280;50497;50.720;-2.084;2023-05-23T06:10:05;101834.25;;;12.24;100.00
64192;BME280;50497;50.720;-2.084;2023-05-23T06:12:30;101888.66;;;12.53;100.00
64192;BME280;50497;50.720;-2.084;2023-05-23T06:14:56;101951.66;;;12.17;100.00
64192;BME280;50497;50.720;-2.084;2023-05-23T06:17:21;102023.56;;;12.33;100.00
64192;BME280;50497;50.720;-2.084;2023-05-23T06:19:47;102042.13;;;12.91;100.00
64192;BME280;50497;50.720;-2.084;2023-05-23T06:22:12;102091.53;;;12.87;100.00
64192;BME280;50497;50.720;-2.084;2023-05-23T06:24:38;102043.38;;;12.55;100.00
64192;BME280;50497;50.720;-2.084;2023-05-23T06:27:03;102032.84;;;12.74;100.00
64192;BME280;50497;50.720;-2.084;2023-05-23T06:29:29;102085.00;;;12.94;100.00
64192;BME280;50497;50.720;-2.084;2023-05-23T06:31:56;102101.59;;;13.05;100.00
64192;BME280;50497;50.720;-2.084;2023-05-23T06:34:22;102100.06;;;12.98;100.00
64192;BME280;50497;50.720;-2.084;2023-05-23T06:36:47;102145.84;;;12.95;100.00
64192;BME280;50497;50.720;-2.084;2023-05-23T06:39:13;102175.00;;;13.81;100.00
64192;BME280;50497;50.720;-2.084;2023-05-23T06:41:39;102200.09;;;14.51;100.00
64192;BME280;50497;50.720;-2.084;2023-05-23T06:44:04;102244.13;;;14.72;100.00
64192;BME280;50497;50.720;-2.084;2023-05-23T06:46:30;102276.34;;;15.20;100.00
64192;BME280;50497;50.720;-2.084;2023-05-23T06:48:56;102362.66;;;15.18;100.00
64192;BME280;50497;50.720;-2.084;2023-05-23T06:51:21;102386.16;;;15.81;100.00
64192;BME280;50497;50.720;-2.084;2023-05-23T06:53:47;102392.03;;;14.80;100.00
64192;BME280;50497;50.720;-2.084;2023-05-23T06:56:12;102432.88;;;15.15;100.00
64192;BME280;50497;50.720;-2.084;2023-05-23T06:58:38;102461.44;;;15.87;100.00
64192;BME280;50497;50.720;-2.084;2023-05-23T07:01:03;102438.41;;;15.12;100.00
64192;BME280;50497;50.720;-2.084;2023-05-23T07:03:29;102446.19;;;14.47;100.00
64192;BME280;50497;50.720;-2.084;2023-05-23T07:05:55;102494.63;;;15.45;100.00
64192;BME280;50497;50.720;-2.084;2023-05-23T07:08:20;102472.97;;;15.92;100.00
64192;BME280;50497;50.720;-2.084;2023-05-23T07:10:46;102436.22;;;14.76;100.00
64192;BME280;50497;50.720;-2.084;2023-05-23T07:13:11;102439.72;;;15.90;100.00
64192;BME280;50497;50.720;-2.084;2023-05-23T07:15:37;102480.94;;;16.57;100.00
64192;BME280;50497;50.720;-2.084;2023-05-23T07:18:02;102508.06;;;16.13;100.00
64192;BME280;50497;50.720;-2.084;2023-05-23T07:20:28;102517.34;;;16.48;100.00
64192;BME280;50497;50.720;-2.084;2023-05-23T07:22:53;102527.28;;;15.61;100.00
64192;BME280;50497;50.720;-2.084;2023-05-23T07:25:19;102517.94;;;16.96;100.00
64192;BME280;50497;50.720;-2.084;2023-05-23T07:27:44;102511.81;;;16.72;100.00
64192;BME280;50497;50.720;-2.084;2023-05-23T07:30:10;102545.38;;;16.46;100.00
64192;BME280;50497;50.720;-2.084;2023-05-23T07:32:36;102541.66;;;17.48;100.00
64192;BME280;50497;50.720;-2.084;2023-05-23T07:35:01;102531.06;;;17.43;100.00
64192;BME280;50497;50.720;-2.084;2023-05-23T07:37:27;102549.56;;;17.90;100.00
64192;BME280;50497;50.720;-2.084;2023-05-23T07:39:52;102572.09;;;18.45;100.00
64192;BME280;50497;50.720;-2.084;2023-05-23T07:42:18;102582.47;;;18.89;100.00
64192;BME280;50497;50.720;-2.084;2023-05-23T07:44:44;102589.19;;;18.64;100.00
64192;BME280;50497;50.720;-2.084;2023-05-23T07:47:09;102583.34;;;19.72;100.00
64192;BME280;50497;50.720;-2.084;2023-05-23T07:49:35;102558.63;;;18.78;100.00
64192;BME280;50497;50.720;-2.084;2023-05-23T07:52:00;102591.22;;;18.42;100.00
64192;BME280;50497;50.720;-2.084;2023-05-23T07:54:26;102591.88;;;20.14;100.00
64192;BME280;50497;50.720;-2.084;2023-05-23T07:56:52;102594.53;;;18.83;100.00
64192;BME280;50497;50.720;-2.084;2023-05-23T07:59:18;102596.69;;;18.59;100.00
64192;BME280;50497;50.720;-2.084;2023-05-23T08:01:46;102589.19;;;19.49;100.00
64192;BME280;50497;50.720;-2.084;2023-05-23T08:04:16;102591.00;;;18.64;100.00
64192;BME280;50497;50.720;-2.084;2023-05-23T08:06:41;102575.28;;;18.36;100.00
64192;BME280;50497;50.720;-2.084;2023-05-23T08:09:07;102569.28;;;18.64;100.00
64192;BME280;50497;50.720;-2.084;2023-05-23T08:11:32;102559.75;;;18.74;100.00
64192;BME280;50497;50.720;-2.084;2023-05-23T08:13:58;102581.97;;;16.95;100.00
64192;BME280;50497;50.720;-2.084;2023-05-23T08:16:24;102567.22;;;17.03;100.00
64192;BME280;50497;50.720;-2.084;2023-05-23T08:18:50;102578.75;;;17.65;100.00
64192;BME280;50497;50.720;-2.084;2023-05-23T08:21:15;102543.44;;;17.49;100.00
64192;BME280;50497;50.720;-2.084;2023-05-23T08:23:40;102583.03;;;18.43;100.00
64192;BME280;50497;50.720;-2.084;2023-05-23T08:26:06;102577.94;;;19.23;100.00
64192;BME280;50497;50.720;-2.084;2023-05-23T08:28:32;102586.78;;;18.58;100.00
64192;BME280;50497;50.720;-2.084;2023-05-23T08:30:58;102579.75;;;19.72;100.00
64192;BME280;50497;50.720;-2.084;2023-05-23T08:33:25;102580.06;;;19.34;100.00
64192;BME280;50497;50.720;-2.084;2023-05-23T08:35:50;102573.69;;;18.49;100.00
64192;BME280;50497;50.720;-2.084;2023-05-23T08:38:16;102579.25;;;18.28;100.00
64192;BME280;50497;50.720;-2.084;2023-05-23T08:40:49;102546.03;;;18.95;100.00
64192;BME280;50497;50.720;-2.084;2023-05-23T08:43:16;102576.91;;;19.42;100.00
64192;BME280;50497;50.720;-2.084;2023-05-23T08:45:42;102583.06;;;20.25;100.00
64192;BME280;50497;50.720;-2.084;2023-05-23T08:48:08;102588.69;;;19.58;100.00
64192;BME280;50497;50.720;-2.084;2023-05-23T08:50:38;102585.47;;;19.34;100.00
64192;BME280;50497;50.720;-2.084;2023-05-23T08:53:05;102567.34;;;20.30;100.00
64192;BME280;50497;50.720;-2.084;2023-05-23T08:55:36;102574.22;;;20.05;100.00
64192;BME280;50497;50.720;-2.084;2023-05-23T08:58:02;102570.25;;;21.16;100.00
64192;BME280;50497;50.720;-2.084;2023-05-23T09:00:27;102573.03;;;19.95;100.00
64192;BME280;50497;50.720;-2.084;2023-05-23T09:02:56;102570.78;;;19.38;100.00
64192;BME280;50497;50.720;-2.084;2023-05-23T09:05:21;102561.34;;;18.43;100.00
64192;BME280;50497;50.720;-2.084;2023-05-23T09:07:47;102552.69;;;19.05;100.00
64192;BME280;50497;50.720;-2.084;2023-05-23T09:10:13;102546.94;;;19.27;100.00
64192;BME280;50497;50.720;-2.084;2023-05-23T09:12:41;102554.78;;;19.49;100.00
64192;BME280;50497;50.720;-2.084;2023-05-23T09:15:08;102553.66;;;19.69;100.00
64192;BME280;50497;50.720;-2.084;2023-05-23T09:17:35;102560.91;;;19.69;100.00
64192;BME280;50497;50.720;-2.084;2023-05-23T09:20:07;102565.44;;;19.36;100.00
64192;BME280;50497;50.720;-2.084;2023-05-23T09:22:34;102533.03;;;18.49;100.00
64192;BME280;50497;50.720;-2.084;2023-05-23T09:25:01;102522.03;;;18.52;100.00
64192;BME280;50497;50.720;-2.084;2023-05-23T09:27:26;102560.47;;;18.60;100.00
64192;BME280;50497;50.720;-2.084;2023-05-23T09:29:52;102557.59;;;18.63;100.00
64192;BME280;50497;50.720;-2.084;2023-05-23T09:32:18;102561.06;;;19.00;100.00
64192;BME280;50497;50.720;-2.084;2023-05-23T09:34:57;102561.06;;;19.00;100.00
64192;BME280;50497;50.720;-2.084;2023-05-23T09:37:36;102544.97;;;19.47;100.00
64192;BME280;50497;50.720;-2.084;2023-05-23T09:40:11;102551.91;;;20.61;100.00
64192;BME280;50497;50.720;-2.084;2023-05-23T09:42:44;102567.16;;;20.94;100.00
64192;BME280;50497;50.720;-2.084;2023-05-23T09:45:12;102555.09;;;21.70;100.00
64192;BME280;50497;50.720;-2.084;2023-05-23T09:47:37;102553.81;;;20.75;100.00
64192;BME280;50497;50.720;-2.084;2023-05-23T09:50:03;102595.56;;;21.47;100.00
64192;BME280;50497;50.720;-2.084;2023-05-23T09:52:35;102595.69;;;21.87;100.00
64192;BME280;50497;50.720;-2.084;2023-05-23T09:55:04;102590.78;;;22.07;100.00
64192;BME280;50497;50.720;-2.084;2023-05-23T09:57:33;102603.94;;;22.67;100.00
64192;BME280;50497;50.720;-2.084;2023-05-23T10:00:00;102609.81;;;22.48;100.00
64192;BME280;50497;50.720;-2.084;2023-05-23T10:03:33;102613.38;;;21.94;100.00
64192;BME280;50497;50.720;-2.084;2023-05-23T10:05:56;102622.69;;;21.63;100.00
64192;BME280;50497;50.720;-2.084;2023-05-23T10:08:42;102616.56;;;21.59;100.00
64192;BME280;50497;50.720;-2.084;2023-05-23T10:13:42;102609.13;;;20.90;100.00
64192;BME280;50497;50.720;-2.084;2023-05-23T10:16:16;102587.88;;;21.68;100.00
64192;BME280;50497;50.720;-2.084;2023-05-23T10:18:43;102600.97;;;21.33;100.00
64192;BME280;50497;50.720;-2.084;2023-05-23T10:21:14;102627.06;;;21.80;100.00
64192;BME280;50497;50.720;-2.084;2023-05-23T10:23:45;102632.50;;;21.80;100.00
64192;BME280;50497;50.720;-2.084;2023-05-23T10:26:12;102608.78;;;21.10;100.00
64192;BME280;50497;50.720;-2.084;2023-05-23T10:28:38;102631.47;;;21.54;100.00
64192;BME280;50497;50.720;-2.084;2023-05-23T10:31:04;102617.88;;;22.23;100.00
64192;BME280;50497;50.720;-2.084;2023-05-23T10:33:31;102622.41;;;21.53;100.00
64192;BME280;50497;50.720;-2.084;2023-05-23T10:36:08;102630.75;;;21.36;100.00
64192;BME280;50497;50.720;-2.084;2023-05-23T10:39:24;102640.69;;;23.02;99.14
64192;BME280;50497;50.720;-2.084;2023-05-23T10:42:12;102622.78;;;22.98;100.00
64192;BME280;50497;50.720;-2.084;2023-05-23T10:44:40;102616.44;;;22.97;92.58
64192;BME280;50497;50.720;-2.084;2023-05-23T10:47:05;102589.72;;;23.91;87.44
64192;BME280;50497;50.720;-2.084;2023-05-23T10:52:06;102618.56;;;23.95;95.22
64192;BME280;50497;50.720;-2.084;2023-05-23T10:55:02;102621.09;;;24.22;96.64
64192;BME280;50497;50.720;-2.084;2023-05-23T10:57:36;102589.75;;;25.20;82.28
64192;BME280;50497;50.720;-2.084;2023-05-23T11:00:02;102598.03;;;24.13;80.88
64192;BME280;50497;50.720;-2.084;2023-05-23T11:02:28;102615.75;;;24.32;90.92
64192;BME280;50497;50.720;-2.084;2023-05-23T11:05:30;102618.19;;;22.98;91.89
64192;BME280;50497;50.720;-2.084;2023-05-23T11:08:10;102598.50;;;24.67;89.05
64192;BME280;50497;50.720;-2.084;2023-05-23T11:11:00;102604.19;;;24.04;94.12
64192;BME280;50497;50.720;-2.084;2023-05-23T11:16:31;102617.69;;;23.82;81.76
64192;BME280;50497;50.720;-2.084;2023-05-23T11:21:45;102612.06;;;22.82;98.63
64192;BME280;50497;50.720;-2.084;2023-05-23T11:24:11;102621.13;;;22.15;100.00
64192;BME280;50497;50.720;-2.084;2023-05-23T11:26:36;102618.25;;;22.58;100.00
64192;BME280;50497;50.720;-2.084;2023-05-23T11:29:01;102593.56;;;21.78;100.00
64192;BME280;50497;50.720;-2.084;2023-05-23T11:31:28;102615.03;;;21.97;100.00
64192;BME280;50497;50.720;-2.084;2023-05-23T11:33:54;102590.47;;;21.41;100.00
64192;BME280;50497;50.720;-2.084;2023-05-23T11:36:20;102606.38;;;20.90;100.00
64192;BME280;50497;50.720;-2.084;2023-05-23T11:38:46;102584.66;;;21.33;100.00
64192;BME280;50497;50.720;-2.084;2023-05-23T11:41:12;102610.31;;;21.43;100.00
64192;BME280;50497;50.720;-2.084;2023-05-23T11:43:48;102596.53;;;22.02;100.00
64192;BME280;50497;50.720;-2.084;2023-05-23T11:46:14;102581.50;;;22.09;100.00
64192;BME280;50497;50.720;-2.084;2023-05-23T11:48:43;102611.47;;;20.96;100.00
64192;BME280;50497;50.720;-2.084;2023-05-23T11:51:08;102578.84;;;21.10;100.00
64192;BME280;50497;50.720;-2.084;2023-05-23T11:53:34;102591.75;;;21.21;100.00
64192;BME280;50497;50.720;-2.084;2023-05-23T11:56:01;102596.38;;;20.76;100.00
64192;BME280;50497;50.720;-2.084;2023-05-23T11:58:37;102584.94;;;20.99;100.00
64192;BME280;50497;50.720;-2.084;2023-05-23T12:01:05;102588.16;;;21.20;100.00
64192;BME280;50497;50.720;-2.084;2023-05-23T12:03:43;102580.78;;;21.22;100.00
64192;BME280;50497;50.720;-2.084;2023-05-23T12:06:09;102581.00;;;20.75;100.00
64192;BME280;50497;50.720;-2.084;2023-05-23T12:08:34;102586.22;;;21.22;100.00
64192;BME280;50497;50.720;-2.084;2023-05-23T12:11:00;102584.34;;;21.23;100.00
64192;BME280;50497;50.720;-2.084;2023-05-23T12:13:28;102586.84;;;20.83;100.00
64192;BME280;50497;50.720;-2.084;2023-05-23T12:16:01;102568.31;;;20.90;100.00
64192;BME280;50497;50.720;-2.084;2023-05-23T12:18:28;102600.44;;;21.98;100.00
64192;BME280;50497;50.720;-2.084;2023-05-23T12:20:54;102592.38;;;22.64;100.00
64192;BME280;50497;50.720;-2.084;2023-05-23T12:23:26;102585.78;;;23.06;100.00
64192;BME280;50497;50.720;-2.084;2023-05-23T12:25:53;102573.88;;;23.33;100.00
64192;BME280;50497;50.720;-2.084;2023-05-23T12:28:20;102605.06;;;22.91;99.89
64192;BME280;50497;50.720;-2.084;2023-05-23T12:30:58;102608.91;;;22.88;100.00
64192;BME280;50497;50.720;-2.084;2023-05-23T12:33:24;102579.31;;;23.46;100.00
64192;BME280;50497;50.720;-2.084;2023-05-23T12:35:49;102617.56;;;23.08;97.20
64192;BME280;50497;50.720;-2.084;2023-05-23T12:38:15;102586.06;;;23.53;100.00
64192;BME280;50497;50.720;-2.084;2023-05-23T12:40:41;102600.59;;;24.28;95.32
64192;BME280;50497;50.720;-2.084;2023-05-23T12:43:08;102600.06;;;24.23;100.00
64192;BME280;50497;50.720;-2.084;2023-05-23T12:45:35;102613.06;;;22.41;100.00
64192;BME280;50497;50.720;-2.084;2023-05-23T12:48:01;102592.38;;;21.55;100.00
64192;BME280;50497;50.720;-2.084;2023-05-23T12:50:27;102606.06;;;23.02;100.00